sensor_id;sensor_type;location;lat;lon;timestamp;P1;durP1;ratioP1;P2;durP2;ratioP2
3261;SDS011;1643;47.746;9.000;2023-05-14T00:01:11;6.53;;;5.47;;
3261;SDS011;1643;47.746;9.000;2023-05-14T00:03:36;5.37;;;4.97;;
3261;SDS011;1643;47.746;9.000;2023-05-14T00:06:04;5.40;;;5.00;;
3261;SDS011;1643;47.746;9.000;2023-05-14T00:08:31;5.90;;;5.40;;
3261;SDS011;1643;47.746;9.000;2023-05-14T00:10:57;6.30;;;5.50;;
3261;SDS011;1643;47.746;9.000;2023-05-14T00:13:23;6.30;;;4.90;;
3261;SDS011;1643;47.746;9.000;2023-05-14T00:15:49;5.90;;;5.40;;
3261;SDS011;1643;47.746;9.000;2023-05-14T00:18:15;6.07;;;5.47;;
3261;SDS011;1643;47.746;9.000;2023-05-14T00:20:41;6.23;;;5.73;;
3261;SDS011;1643;47.746;9.000;2023-05-14T00:23:06;6.13;;;5.53;;
3261;SDS011;1643;47.746;9.000;2023-05-14T00:25:32;6.60;;;6.00;;
3261;SDS011;1643;47.746;9.000;2023-05-14T00:27:57;5.80;;;5.30;;
3261;SDS011;1643;47.746;9.000;2023-05-14T00:30:23;6.17;;;5.57;;
3261;SDS011;1643;47.746;9.000;2023-05-14T00:32:48;6.30;;;5.70;;
3261;SDS011;1643;47.746;9.000;2023-05-14T00:35:14;6.03;;;5.43;;
3261;SDS011;1643;47.746;9.000;2023-05-14T00:37:40;6.70;;;6.10;;
3261;SDS011;1643;47.746;9.000;2023-05-14T00:40:06;6.97;;;6.37;;
3261;SDS011;1643;47.746;9.000;2023-05-14T00:42:32;6.73;;;6.10;;
3261;SDS011;1643;47.746;9.000;2023-05-14T00:44:58;7.10;;;6.40;;
3261;SDS011;1643;47.746;9.000;2023-05-14T00:47:24;7.43;;;6.73;;
3261;SDS011;1643;47.746;9.000;2023-05-14T00:49:50;8.57;;;7.10;;
3261;SDS011;1643;47.746;9.000;2023-05-14T00:52:16;6.40;;;5.80;;
3261;SDS011;1643;47.746;9.000;2023-05-14T00:54:43;6.80;;;6.10;;
3261;SDS011;1643;47.746;9.000;2023-05-14T00:57:10;6.90;;;6.27;;
3261;SDS011;1643;47.746;9.000;2023-05-14T00:59:36;6.33;;;5.80;;
3261;SDS011;1643;47.746;9.000;2023-05-14T01:02:04;7.00;;;6.30;;
3261;SDS011;1643;47.746;9.000;2023-05-14T01:04:30;7.00;;;6.30;;
3261;SDS011;1643;47.746;9.000;2023-05-14T01:14:56;7.07;;;6.47;;
3261;SDS011;1643;47.746;9.000;2023-05-14T01:17:27;7.47;;;6.77;;
3261;SDS011;1643;47.746;9.000;2023-05-14T01:19:56;10.67;;;7.03;;
3261;SDS011;1643;47.746;9.000;2023-05-14T01:22:22;7.43;;;6.73;;
3261;SDS011;1643;47.746;9.000;2023-05-14T01:24:47;6.80;;;6.20;;
3261;SDS011;1643;47.746;9.000;2023-05-14T01:29:49;7.43;;;6.73;;
3261;SDS011;1643;47.746;9.000;2023-05-14T01:32:21;7.93;;;7.20;;
3261;SDS011;1643;47.746;9.000;2023-05-14T01:34:48;8.00;;;7.20;;
3261;SDS011;1643;47.746;9.000;2023-05-14T01:37:16;7.87;;;7.07;;
3261;SDS011;1643;47.746;9.000;2023-05-14T01:39:41;8.70;;;7.73;;
3261;SDS011;1643;47.746;9.000;2023-05-14T01:42:08;8.73;;;7.80;;
3261;SDS011;1643;47.746;9.000;2023-05-14T01:44:34;11.93;;;8.10;;
3261;SDS011;1643;47.746;9.000;2023-05-14T01:47:00;7.47;;;6.77;;
3261;SDS011;1643;47.746;9.000;2023-05-14T01:49:26;8.00;;;7.20;;
3261;SDS011;1643;47.746;9.000;2023-05-14T01:51:51;7.80;;;7.10;;
3261;SDS011;1643;47.746;9.000;2023-05-14T01:54:17;9.77;;;7.57;;
3261;SDS011;1643;47.746;9.000;2023-05-14T01:56:42;6.93;;;6.30;;
3261;SDS011;1643;47.746;9.000;2023-05-14T01:59:08;7.33;;;6.63;;
3261;SDS011;1643;47.746;9.000;2023-05-14T02:01:34;7.57;;;6.60;;
3261;SDS011;1643;47.746;9.000;2023-05-14T02:03:59;8.53;;;7.63;;
3261;SDS011;1643;47.746;9.000;2023-05-14T02:06:25;11.17;;;7.33;;
3261;SDS011;1643;47.746;9.000;2023-05-14T02:08:51;7.67;;;6.83;;
3261;SDS011;1643;47.746;9.000;2023-05-14T02:11:16;8.90;;;7.53;;
3261;SDS011;1643;47.746;9.000;2023-05-14T02:13:42;7.90;;;7.10;;
3261;SDS011;1643;47.746;9.000;2023-05-14T02:16:07;8.50;;;6.93;;
3261;SDS011;1643;47.746;9.000;2023-05-14T02:18:33;9.83;;;7.50;;
3261;SDS011;1643;47.746;9.000;2023-05-14T02:20:59;10.47;;;6.60;;
3261;SDS011;1643;47.746;9.000;2023-05-14T02:23:24;8.30;;;7.50;;
3261;SDS011;1643;47.746;9.000;2023-05-14T02:25:50;8.00;;;7.20;;
3261;SDS011;1643;47.746;9.000;2023-05-14T02:28:15;8.00;;;7.20;;
3261;SDS011;1643;47.746;9.000;2023-05-14T02:30:41;7.90;;;6.57;;
3261;SDS011;1643;47.746;9.000;2023-05-14T02:33:07;7.57;;;6.87;;
3261;SDS011;1643;47.746;9.000;2023-05-14T02:35:32;8.67;;;7.03;;
3261;SDS011;1643;47.746;9.000;2023-05-14T02:37:58;7.90;;;7.10;;
3261;SDS011;1643;47.746;9.000;2023-05-14T02:40:24;7.73;;;7.03;;
3261;SDS011;1643;47.746;9.000;2023-05-14T02:42:49;8.00;;;7.20;;
3261;SDS011;1643;47.746;9.000;2023-05-14T02:45:15;8.07;;;7.27;;
3261;SDS011;1643;47.746;9.000;2023-05-14T02:47:41;8.53;;;7.37;;
3261;SDS011;1643;47.746;9.000;2023-05-14T02:50:07;7.80;;;7.10;;
3261;SDS011;1643;47.746;9.000;2023-05-14T02:52:33;7.83;;;7.10;;
3261;SDS011;1643;47.746;9.000;2023-05-14T02:54:59;7.93;;;7.23;;
3261;SDS011;1643;47.746;9.000;2023-05-14T02:57:25;7.43;;;6.73;;
3261;SDS011;1643;47.746;9.000;2023-05-14T02:59:51;7.63;;;6.97;;
3261;SDS011;1643;47.746;9.000;2023-05-14T03:02:17;7.27;;;6.63;;
3261;SDS011;1643;47.746;9.000;2023-05-14T03:04:42;8.37;;;7.57;;
3261;SDS011;1643;47.746;9.000;2023-05-14T03:07:08;7.23;;;6.53;;
3261;SDS011;1643;47.746;9.000;2023-05-14T03:09:33;8.40;;;7.60;;
3261;SDS011;1643;47.746;9.000;2023-05-14T03:11:59;8.23;;;7.30;;
3261;SDS011;1643;47.746;9.000;2023-05-14T03:14:25;8.20;;;7.30;;
3261;SDS011;1643;47.746;9.000;2023-05-14T03:16:50;8.27;;;7.47;;
3261;SDS011;1643;47.746;9.000;2023-05-14T03:19:16;10.10;;;8.20;;
3261;SDS011;1643;47.746;9.000;2023-05-14T03:21:42;9.87;;;7.97;;
3261;SDS011;1643;47.746;9.000;2023-05-14T03:24:07;7.83;;;7.03;;
3261;SDS011;1643;47.746;9.000;2023-05-14T03:26:33;7.67;;;6.97;;
3261;SDS011;1643;47.746;9.000;2023-05-14T03:28:58;7.30;;;6.60;;
3261;SDS011;1643;47.746;9.000;2023-05-14T03:31:24;7.80;;;7.00;;
3261;SDS011;1643;47.746;9.000;2023-05-14T03:33:50;7.90;;;7.10;;
3261;SDS011;1643;47.746;9.000;2023-05-14T03:36:16;7.20;;;6.50;;
3261;SDS011;1643;47.746;9.000;2023-05-14T03:38:41;8.80;;;7.90;;
3261;SDS011;1643;47.746;9.000;2023-05-14T03:41:07;7.63;;;6.63;;
3261;SDS011;1643;47.746;9.000;2023-05-14T03:43:33;7.07;;;6.37;;
3261;SDS011;1643;47.746;9.000;2023-05-14T03:45:59;7.70;;;6.80;;
3261;SDS011;1643;47.746;9.000;2023-05-14T03:48:24;9.87;;;6.63;;
3261;SDS011;1643;47.746;9.000;2023-05-14T03:50:50;8.00;;;6.47;;
3261;SDS011;1643;47.746;9.000;2023-05-14T03:53:16;6.60;;;5.97;;
3261;SDS011;1643;47.746;9.000;2023-05-14T03:55:41;6.13;;;5.47;;
3261;SDS011;1643;47.746;9.000;2023-05-14T03:58:07;6.63;;;5.83;;
3261;SDS011;1643;47.746;9.000;2023-05-14T04:00:38;5.90;;;5.30;;
3261;SDS011;1643;47.746;9.000;2023-05-14T04:03:05;6.13;;;5.57;;
3261;SDS011;1643;47.746;9.000;2023-05-14T04:05:31;7.23;;;6.10;;
3261;SDS011;1643;47.746;9.000;2023-05-14T04:07:56;6.43;;;5.83;;
3261;SDS011;1643;47.746;9.000;2023-05-14T04:10:22;7.13;;;5.77;;
3261;SDS011;1643;47.746;9.000;2023-05-14T04:12:48;6.33;;;5.77;;
3261;SDS011;1643;47.746;9.000;2023-05-14T04:15:13;7.10;;;6.40;;
3261;SDS011;1643;47.746;9.000;2023-05-14T04:17:39;7.80;;;5.63;;
3261;SDS011;1643;47.746;9.000;2023-05-14T04:20:05;7.30;;;5.93;;
3261;SDS011;1643;47.746;9.000;2023-05-14T04:22:31;5.90;;;5.30;;
3261;SDS011;1643;47.746;9.000;2023-05-14T04:24:57;5.93;;;5.43;;
3261;SDS011;1643;47.746;9.000;2023-05-14T04:27:23;7.33;;;5.60;;
3261;SDS011;1643;47.746;9.000;2023-05-14T04:29:48;7.43;;;6.37;;
3261;SDS011;1643;47.746;9.000;2023-05-14T04:32:14;8.07;;;6.73;;
3261;SDS011;1643;47.746;9.000;2023-05-14T04:34:41;7.40;;;6.60;;
3261;SDS011;1643;47.746;9.000;2023-05-14T04:37:07;8.23;;;6.20;;
3261;SDS011;1643;47.746;9.000;2023-05-14T04:39:33;9.17;;;7.00;;
3261;SDS011;1643;47.746;9.000;2023-05-14T04:41:58;6.97;;;6.27;;
3261;SDS011;1643;47.746;9.000;2023-05-14T04:44:24;8.67;;;6.97;;
3261;SDS011;1643;47.746;9.000;2023-05-14T04:46:50;9.60;;;6.60;;
3261;SDS011;1643;47.746;9.000;2023-05-14T04:49:15;6.63;;;5.83;;
3261;SDS011;1643;47.746;9.000;2023-05-14T04:51:41;8.07;;;6.33;;
3261;SDS011;1643;47.746;9.000;2023-05-14T04:54:07;7.80;;;6.67;;
3261;SDS011;1643;47.746;9.000;2023-05-14T04:56:32;7.30;;;6.50;;
3261;SDS011;1643;47.746;9.000;2023-05-14T04:58:58;9.07;;;7.60;;
3261;SDS011;1643;47.746;9.000;2023-05-14T05:01:23;9.17;;;6.53;;
3261;SDS011;1643;47.746;9.000;2023-05-14T05:03:49;8.33;;;7.50;;
3261;SDS011;1643;47.746;9.000;2023-05-14T05:06:15;7.73;;;6.93;;
3261;SDS011;1643;47.746;9.000;2023-05-14T05:08:40;8.37;;;6.93;;
3261;SDS011;1643;47.746;9.000;2023-05-14T05:11:06;9.50;;;7.00;;
3261;SDS011;1643;47.746;9.000;2023-05-14T05:13:31;7.90;;;6.67;;
3261;SDS011;1643;47.746;9.000;2023-05-14T05:15:57;8.70;;;7.80;;
3261;SDS011;1643;47.746;9.000;2023-05-14T05:18:23;9.80;;;7.47;;
3261;SDS011;1643;47.746;9.000;2023-05-14T05:20:48;7.50;;;6.67;;
3261;SDS011;1643;47.746;9.000;2023-05-14T05:23:14;7.43;;;6.20;;
3261;SDS011;1643;47.746;9.000;2023-05-14T05:25:40;6.97;;;6.27;;
3261;SDS011;1643;47.746;9.000;2023-05-14T05:28:05;7.90;;;7.10;;
3261;SDS011;1643;47.746;9.000;2023-05-14T05:30:31;7.47;;;6.27;;
3261;SDS011;1643;47.746;9.000;2023-05-14T05:32:56;7.23;;;6.53;;
3261;SDS011;1643;47.746;9.000;2023-05-14T05:35:22;9.23;;;6.40;;
3261;SDS011;1643;47.746;9.000;2023-05-14T05:37:48;7.70;;;6.73;;
3261;SDS011;1643;47.746;9.000;2023-05-14T05:40:14;7.23;;;5.67;;
3261;SDS011;1643;47.746;9.000;2023-05-14T05:42:40;7.50;;;6.70;;
3261;SDS011;1643;47.746;9.000;2023-05-14T05:45:06;9.23;;;6.40;;
3261;SDS011;1643;47.746;9.000;2023-05-14T05:47:32;6.87;;;6.17;;
3261;SDS011;1643;47.746;9.000;2023-05-14T05:49:57;6.43;;;5.80;;
3261;SDS011;1643;47.746;9.000;2023-05-14T05:52:23;6.50;;;5.90;;
3261;SDS011;1643;47.746;9.000;2023-05-14T05:54:49;7.10;;;5.57;;
3261;SDS011;1643;47.746;9.000;2023-05-14T05:57:14;7.90;;;6.13;;
3261;SDS011;1643;47.746;9.000;2023-05-14T05:59:40;8.13;;;5.77;;
3261;SDS011;1643;47.746;9.000;2023-05-14T06:02:05;6.50;;;5.63;;
3261;SDS011;1643;47.746;9.000;2023-05-14T06:04:31;7.40;;;5.87;;
3261;SDS011;1643;47.746;9.000;2023-05-14T06:06:57;6.40;;;5.80;;
3261;SDS011;1643;47.746;9.000;2023-05-14T06:09:22;6.80;;;5.57;;
3261;SDS011;1643;47.746;9.000;2023-05-14T06:11:48;7.40;;;5.97;;
3261;SDS011;1643;47.746;9.000;2023-05-14T06:14:13;7.67;;;6.77;;
3261;SDS011;1643;47.746;9.000;2023-05-14T06:16:39;7.07;;;6.37;;
3261;SDS011;1643;47.746;9.000;2023-05-14T06:19:05;7.93;;;6.60;;
3261;SDS011;1643;47.746;9.000;2023-05-14T06:21:32;7.43;;;6.73;;
3261;SDS011;1643;47.746;9.000;2023-05-14T06:23:57;8.63;;;6.67;;
3261;SDS011;1643;47.746;9.000;2023-05-14T06:26:23;10.93;;;7.23;;
3261;SDS011;1643;47.746;9.000;2023-05-14T06:28:49;10.60;;;8.10;;
3261;SDS011;1643;47.746;9.000;2023-05-14T06:31:14;7.47;;;6.73;;
3261;SDS011;1643;47.746;9.000;2023-05-14T06:33:40;10.17;;;8.27;;
3261;SDS011;1643;47.746;9.000;2023-05-14T06:36:05;10.00;;;7.03;;
3261;SDS011;1643;47.746;9.000;2023-05-14T06:38:32;8.97;;;7.70;;
3261;SDS011;1643;47.746;9.000;2023-05-14T06:40:57;9.80;;;8.67;;
3261;SDS011;1643;47.746;9.000;2023-05-14T06:43:23;9.60;;;8.47;;
3261;SDS011;1643;47.746;9.000;2023-05-14T06:45:49;9.53;;;8.53;;
3261;SDS011;1643;47.746;9.000;2023-05-14T06:48:15;11.20;;;8.77;;
3261;SDS011;1643;47.746;9.000;2023-05-14T06:50:42;10.23;;;7.40;;
3261;SDS011;1643;47.746;9.000;2023-05-14T06:53:08;11.03;;;9.00;;
3261;SDS011;1643;47.746;9.000;2023-05-14T06:55:34;10.53;;;9.43;;
3261;SDS011;1643;47.746;9.000;2023-05-14T06:58:00;9.27;;;7.30;;
3261;SDS011;1643;47.746;9.000;2023-05-14T07:00:26;9.80;;;8.70;;
3261;SDS011;1643;47.746;9.000;2023-05-14T07:02:52;13.93;;;9.30;;
3261;SDS011;1643;47.746;9.000;2023-05-14T07:05:17;9.23;;;8.20;;
3261;SDS011;1643;47.746;9.000;2023-05-14T07:07:43;9.87;;;8.87;;
3261;SDS011;1643;47.746;9.000;2023-05-14T07:10:09;10.43;;;8.07;;
3261;SDS011;1643;47.746;9.000;2023-05-14T07:12:35;9.70;;;8.40;;
3261;SDS011;1643;47.746;9.000;2023-05-14T07:15:00;9.80;;;8.50;;
3261;SDS011;1643;47.746;9.000;2023-05-14T07:17:26;11.97;;;8.67;;
3261;SDS011;1643;47.746;9.000;2023-05-14T07:19:51;13.20;;;8.90;;
3261;SDS011;1643;47.746;9.000;2023-05-14T07:22:19;10.40;;;8.43;;
3261;SDS011;1643;47.746;9.000;2023-05-14T07:24:45;8.93;;;8.03;;
3261;SDS011;1643;47.746;9.000;2023-05-14T07:27:11;9.83;;;8.03;;
3261;SDS011;1643;47.746;9.000;2023-05-14T07:29:37;11.23;;;8.90;;
3261;SDS011;1643;47.746;9.000;2023-05-14T07:32:02;9.70;;;7.90;;
3261;SDS011;1643;47.746;9.000;2023-05-14T07:34:28;8.83;;;7.93;;
3261;SDS011;1643;47.746;9.000;2023-05-14T07:36:54;8.70;;;7.80;;
3261;SDS011;1643;47.746;9.000;2023-05-14T07:39:20;8.30;;;7.27;;
3261;SDS011;1643;47.746;9.000;2023-05-14T07:41:45;10.70;;;9.20;;
3261;SDS011;1643;47.746;9.000;2023-05-14T07:44:11;9.03;;;7.90;;
3261;SDS011;1643;47.746;9.000;2023-05-14T07:46:37;9.00;;;7.47;;
3261;SDS011;1643;47.746;9.000;2023-05-14T07:49:02;10.00;;;8.43;;
3261;SDS011;1643;47.746;9.000;2023-05-14T07:51:28;9.43;;;8.40;;
3261;SDS011;1643;47.746;9.000;2023-05-14T07:53:54;10.43;;;8.70;;
3261;SDS011;1643;47.746;9.000;2023-05-14T07:56:23;9.37;;;8.33;;
3261;SDS011;1643;47.746;9.000;2023-05-14T07:58:49;12.27;;;10.10;;
3261;SDS011;1643;47.746;9.000;2023-05-14T08:01:15;19.77;;;13.93;;
3261;SDS011;1643;47.746;9.000;2023-05-14T08:03:41;13.27;;;10.77;;
3261;SDS011;1643;47.746;9.000;2023-05-14T08:06:06;10.17;;;8.63;;
3261;SDS011;1643;47.746;9.000;2023-05-14T08:08:32;11.00;;;9.60;;
3261;SDS011;1643;47.746;9.000;2023-05-14T08:10:58;10.87;;;9.60;;
3261;SDS011;1643;47.746;9.000;2023-05-14T08:13:23;11.63;;;9.27;;
3261;SDS011;1643;47.746;9.000;2023-05-14T08:15:49;11.10;;;8.27;;
3261;SDS011;1643;47.746;9.000;2023-05-14T08:18:16;15.20;;;12.10;;
3261;SDS011;1643;47.746;9.000;2023-05-14T08:20:41;17.67;;;11.77;;
3261;SDS011;1643;47.746;9.000;2023-05-14T08:23:07;11.13;;;9.50;;
3261;SDS011;1643;47.746;9.000;2023-05-14T08:25:33;11.30;;;9.40;;
3261;SDS011;1643;47.746;9.000;2023-05-14T08:27:59;11.00;;;9.33;;
3261;SDS011;1643;47.746;9.000;2023-05-14T08:30:25;9.83;;;8.53;;
3261;SDS011;1643;47.746;9.000;2023-05-14T08:32:51;10.40;;;8.33;;
3261;SDS011;1643;47.746;9.000;2023-05-14T08:35:17;11.10;;;8.23;;
3261;SDS011;1643;47.746;9.000;2023-05-14T08:37:43;8.67;;;7.70;;
3261;SDS011;1643;47.746;9.000;2023-05-14T08:40:09;12.10;;;8.87;;
3261;SDS011;1643;47.746;9.000;2023-05-14T08:42:37;18.40;;;13.27;;
3261;SDS011;1643;47.746;9.000;2023-05-14T08:45:10;26.30;;;15.60;;
3261;SDS011;1643;47.746;9.000;2023-05-14T08:47:39;15.00;;;10.63;;
3261;SDS011;1643;47.746;9.000;2023-05-14T08:50:05;13.07;;;9.60;;
3261;SDS011;1643;47.746;9.000;2023-05-14T08:52:32;8.40;;;7.47;;
3261;SDS011;1643;47.746;9.000;2023-05-14T08:55:02;10.10;;;8.33;;
3261;SDS011;1643;47.746;9.000;2023-05-14T08:57:30;9.53;;;8.53;;
3261;SDS011;1643;47.746;9.000;2023-05-14T08:59:57;10.03;;;7.90;;
3261;SDS011;1643;47.746;9.000;2023-05-14T09:02:23;13.80;;;9.07;;
3261;SDS011;1643;47.746;9.000;2023-05-14T09:04:56;11.07;;;8.60;;
3261;SDS011;1643;47.746;9.000;2023-05-14T09:07:23;12.73;;;10.73;;
3261;SDS011;1643;47.746;9.000;2023-05-14T09:09:49;10.30;;;8.63;;
3261;SDS011;1643;47.746;9.000;2023-05-14T09:12:16;8.50;;;7.70;;
3261;SDS011;1643;47.746;9.000;2023-05-14T09:14:42;11.10;;;9.10;;
3261;SDS011;1643;47.746;9.000;2023-05-14T09:17:08;9.60;;;7.87;;
3261;SDS011;1643;47.746;9.000;2023-05-14T09:19:36;10.27;;;8.50;;
3261;SDS011;1643;47.746;9.000;2023-05-14T09:22:13;80.93;;;42.47;;
3261;SDS011;1643;47.746;9.000;2023-05-14T09:24:40;76.50;;;44.67;;
3261;SDS011;1643;47.746;9.000;2023-05-14T09:27:06;36.40;;;23.60;;
3261;SDS011;1643;47.746;9.000;2023-05-14T09:29:33;18.80;;;14.80;;
3261;SDS011;1643;47.746;9.000;2023-05-14T09:31:59;15.57;;;13.17;;
3261;SDS011;1643;47.746;9.000;2023-05-14T09:34:33;11.50;;;10.20;;
3261;SDS011;1643;47.746;9.000;2023-05-14T09:37:03;14.40;;;11.40;;
3261;SDS011;1643;47.746;9.000;2023-05-14T09:39:30;9.33;;;8.33;;
3261;SDS011;1643;47.746;9.000;2023-05-14T09:41:57;10.20;;;8.37;;
3261;SDS011;1643;47.746;9.000;2023-05-14T09:44:23;9.70;;;8.60;;
3261;SDS011;1643;47.746;9.000;2023-05-14T09:46:50;9.53;;;8.63;;
3261;SDS011;1643;47.746;9.000;2023-05-14T09:49:16;12.70;;;8.50;;
3261;SDS011;1643;47.746;9.000;2023-05-14T09:51:42;8.70;;;7.47;;
3261;SDS011;1643;47.746;9.000;2023-05-14T09:54:08;11.77;;;8.37;;
3261;SDS011;1643;47.746;9.000;2023-05-14T09:56:34;9.10;;;8.10;;
3261;SDS011;1643;47.746;9.000;2023-05-14T09:59:00;10.47;;;8.90;;
3261;SDS011;1643;47.746;9.000;2023-05-14T10:01:30;8.80;;;7.90;;
3261;SDS011;1643;47.746;9.000;2023-05-14T10:03:57;9.63;;;8.40;;
3261;SDS011;1643;47.746;9.000;2023-05-14T10:06:24;11.17;;;8.70;;
3261;SDS011;1643;47.746;9.000;2023-05-14T10:08:55;9.07;;;8.13;;
3261;SDS011;1643;47.746;9.000;2023-05-14T10:11:24;8.03;;;7.23;;
3261;SDS011;1643;47.746;9.000;2023-05-14T10:14:31;8.77;;;7.67;;
3261;SDS011;1643;47.746;9.000;2023-05-14T10:16:50;11.20;;;7.77;;
3261;SDS011;1643;47.746;9.000;2023-05-14T10:19:19;8.60;;;7.70;;
3261;SDS011;1643;47.746;9.000;2023-05-14T10:21:48;9.20;;;8.23;;
3261;SDS011;1643;47.746;9.000;2023-05-14T10:24:19;6.90;;;6.20;;
3261;SDS011;1643;47.746;9.000;2023-05-14T10:26:46;8.70;;;7.80;;
3261;SDS011;1643;47.746;9.000;2023-05-14T10:29:12;11.90;;;10.30;;
3261;SDS011;1643;47.746;9.000;2023-05-14T10:34:38;8.33;;;7.40;;
3261;SDS011;1643;47.746;9.000;2023-05-14T10:37:09;8.80;;;7.90;;
3261;SDS011;1643;47.746;9.000;2023-05-14T10:39:40;8.90;;;8.00;;
3261;SDS011;1643;47.746;9.000;2023-05-14T10:44:53;10.90;;;7.73;;
3261;SDS011;1643;47.746;9.000;2023-05-14T10:47:28;9.30;;;8.40;;
3261;SDS011;1643;47.746;9.000;2023-05-14T10:49:59;8.27;;;7.40;;
3261;SDS011;1643;47.746;9.000;2023-05-14T10:52:27;9.23;;;8.33;;
3261;SDS011;1643;47.746;9.000;2023-05-14T10:57:20;8.43;;;7.60;;
3261;SDS011;1643;47.746;9.000;2023-05-14T10:59:51;10.30;;;7.30;;
3261;SDS011;1643;47.746;9.000;2023-05-14T11:02:23;6.50;;;5.90;;
3261;SDS011;1643;47.746;9.000;2023-05-14T11:04:51;8.10;;;7.30;;
3261;SDS011;1643;47.746;9.000;2023-05-14T11:07:39;7.10;;;6.40;;
3261;SDS011;1643;47.746;9.000;2023-05-14T11:12:36;10.80;;;9.40;;
3261;SDS011;1643;47.746;9.000;2023-05-14T11:15:05;9.63;;;7.30;;
3261;SDS011;1643;47.746;9.000;2023-05-14T11:17:33;8.20;;;7.50;;
3261;SDS011;1643;47.746;9.000;2023-05-14T11:20:00;10.97;;;7.87;;
3261;SDS011;1643;47.746;9.000;2023-05-14T11:22:26;8.57;;;7.27;;
3261;SDS011;1643;47.746;9.000;2023-05-14T11:24:51;7.77;;;7.00;;
3261;SDS011;1643;47.746;9.000;2023-05-14T11:27:17;7.13;;;6.43;;
3261;SDS011;1643;47.746;9.000;2023-05-14T11:29:44;8.67;;;7.80;;
3261;SDS011;1643;47.746;9.000;2023-05-14T11:32:11;9.00;;;8.10;;
3261;SDS011;1643;47.746;9.000;2023-05-14T11:34:38;8.10;;;6.40;;
3261;SDS011;1643;47.746;9.000;2023-05-14T11:37:04;7.53;;;6.83;;
3261;SDS011;1643;47.746;9.000;2023-05-14T11:39:33;9.03;;;8.13;;
3261;SDS011;1643;47.746;9.000;2023-05-14T11:42:02;6.70;;;6.10;;
3261;SDS011;1643;47.746;9.000;2023-05-14T11:44:38;6.40;;;5.80;;
3261;SDS011;1643;47.746;9.000;2023-05-14T11:47:09;6.43;;;5.83;;
3261;SDS011;1643;47.746;9.000;2023-05-14T11:49:35;8.40;;;7.17;;
3261;SDS011;1643;47.746;9.000;2023-05-14T11:52:03;7.43;;;6.50;;
3261;SDS011;1643;47.746;9.000;2023-05-14T11:54:31;10.30;;;9.23;;
3261;SDS011;1643;47.746;9.000;2023-05-14T11:56:58;18.33;;;15.73;;
3261;SDS011;1643;47.746;9.000;2023-05-14T11:59:26;10.83;;;8.63;;
3261;SDS011;1643;47.746;9.000;2023-05-14T12:01:54;10.13;;;9.07;;
3261;SDS011;1643;47.746;9.000;2023-05-14T12:04:19;9.27;;;7.07;;
3261;SDS011;1643;47.746;9.000;2023-05-14T12:06:52;7.87;;;7.07;;
3261;SDS011;1643;47.746;9.000;2023-05-14T12:09:19;11.40;;;9.17;;
3261;SDS011;1643;47.746;9.000;2023-05-14T12:11:46;7.47;;;6.63;;
3261;SDS011;1643;47.746;9.000;2023-05-14T12:14:15;9.17;;;7.83;;
3261;SDS011;1643;47.746;9.000;2023-05-14T12:16:45;6.23;;;5.60;;
3261;SDS011;1643;47.746;9.000;2023-05-14T12:19:16;7.93;;;7.13;;
3261;SDS011;1643;47.746;9.000;2023-05-14T12:21:44;11.60;;;9.23;;
3261;SDS011;1643;47.746;9.000;2023-05-14T12:24:16;10.40;;;8.10;;
3261;SDS011;1643;47.746;9.000;2023-05-14T12:26:43;7.73;;;6.93;;
3261;SDS011;1643;47.746;9.000;2023-05-14T12:29:13;6.80;;;6.10;;
3261;SDS011;1643;47.746;9.000;2023-05-14T12:31:46;6.10;;;5.20;;
3261;SDS011;1643;47.746;9.000;2023-05-14T12:34:15;8.23;;;5.33;;
3261;SDS011;1643;47.746;9.000;2023-05-14T12:36:41;6.03;;;5.33;;
3261;SDS011;1643;47.746;9.000;2023-05-14T12:39:07;5.80;;;5.30;;
3261;SDS011;1643;47.746;9.000;2023-05-14T12:41:34;5.73;;;5.23;;
3261;SDS011;1643;47.746;9.000;2023-05-14T12:44:00;5.30;;;4.80;;
3261;SDS011;1643;47.746;9.000;2023-05-14T12:46:27;24.57;;;13.30;;
3261;SDS011;1643;47.746;9.000;2023-05-14T12:48:53;15.37;;;9.20;;
3261;SDS011;1643;47.746;9.000;2023-05-14T12:51:19;12.10;;;9.13;;
3261;SDS011;1643;47.746;9.000;2023-05-14T12:53:45;11.37;;;7.47;;
3261;SDS011;1643;47.746;9.000;2023-05-14T12:56:11;22.30;;;15.60;;
3261;SDS011;1643;47.746;9.000;2023-05-14T12:58:37;17.00;;;12.77;;
3261;SDS011;1643;47.746;9.000;2023-05-14T13:01:03;10.30;;;8.73;;
3261;SDS011;1643;47.746;9.000;2023-05-14T13:03:29;8.70;;;7.40;;
3261;SDS011;1643;47.746;9.000;2023-05-14T13:05:55;15.70;;;10.40;;
3261;SDS011;1643;47.746;9.000;2023-05-14T13:08:21;9.83;;;8.37;;
3261;SDS011;1643;47.746;9.000;2023-05-14T13:10:49;10.77;;;9.50;;
3261;SDS011;1643;47.746;9.000;2023-05-14T13:13:15;8.43;;;6.87;;
3261;SDS011;1643;47.746;9.000;2023-05-14T13:15:41;6.20;;;5.70;;
3261;SDS011;1643;47.746;9.000;2023-05-14T13:18:06;5.43;;;4.93;;
3261;SDS011;1643;47.746;9.000;2023-05-14T13:20:32;5.70;;;5.17;;
3261;SDS011;1643;47.746;9.000;2023-05-14T13:22:58;5.50;;;5.00;;
3261;SDS011;1643;47.746;9.000;2023-05-14T13:25:24;5.53;;;5.07;;
3261;SDS011;1643;47.746;9.000;2023-05-14T13:27:50;5.50;;;5.00;;
3261;SDS011;1643;47.746;9.000;2023-05-14T13:30:16;5.23;;;4.83;;
3261;SDS011;1643;47.746;9.000;2023-05-14T13:32:42;5.10;;;4.70;;
3261;SDS011;1643;47.746;9.000;2023-05-14T13:35:08;6.00;;;5.40;;
3261;SDS011;1643;47.746;9.000;2023-05-14T13:37:35;8.30;;;5.93;;
3261;SDS011;1643;47.746;9.000;2023-05-14T13:40:00;4.50;;;4.10;;
3261;SDS011;1643;47.746;9.000;2023-05-14T13:42:28;4.60;;;4.30;;
3261;SDS011;1643;47.746;9.000;2023-05-14T13:44:54;3.80;;;3.40;;
3261;SDS011;1643;47.746;9.000;2023-05-14T13:47:20;4.17;;;3.87;;
3261;SDS011;1643;47.746;9.000;2023-05-14T13:49:46;5.03;;;3.80;;
3261;SDS011;1643;47.746;9.000;2023-05-14T13:52:11;4.37;;;4.00;;
3261;SDS011;1643;47.746;9.000;2023-05-14T13:54:37;4.00;;;3.70;;
3261;SDS011;1643;47.746;9.000;2023-05-14T13:57:02;5.97;;;4.10;;
3261;SDS011;1643;47.746;9.000;2023-05-14T13:59:28;5.07;;;4.67;;
3261;SDS011;1643;47.746;9.000;2023-05-14T14:01:54;8.17;;;7.37;;
3261;SDS011;1643;47.746;9.000;2023-05-14T14:04:20;19.40;;;14.10;;
3261;SDS011;1643;47.746;9.000;2023-05-14T14:06:46;15.20;;;12.03;;
3261;SDS011;1643;47.746;9.000;2023-05-14T14:09:11;18.67;;;14.80;;
3261;SDS011;1643;47.746;9.000;2023-05-14T14:11:38;12.43;;;9.80;;
3261;SDS011;1643;47.746;9.000;2023-05-14T14:14:04;8.87;;;7.60;;
3261;SDS011;1643;47.746;9.000;2023-05-14T14:16:30;7.50;;;6.80;;
3261;SDS011;1643;47.746;9.000;2023-05-14T14:18:56;10.30;;;8.30;;
3261;SDS011;1643;47.746;9.000;2023-05-14T14:21:21;11.60;;;9.50;;
3261;SDS011;1643;47.746;9.000;2023-05-14T14:23:47;11.17;;;9.90;;
3261;SDS011;1643;47.746;9.000;2023-05-14T14:26:13;8.77;;;7.30;;
3261;SDS011;1643;47.746;9.000;2023-05-14T14:28:38;6.60;;;6.00;;
3261;SDS011;1643;47.746;9.000;2023-05-14T14:31:04;7.90;;;7.10;;
3261;SDS011;1643;47.746;9.000;2023-05-14T14:33:30;5.13;;;4.73;;
3261;SDS011;1643;47.746;9.000;2023-05-14T14:35:56;8.47;;;7.53;;
3261;SDS011;1643;47.746;9.000;2023-05-14T14:38:21;10.07;;;9.07;;
3261;SDS011;1643;47.746;9.000;2023-05-14T14:40:48;9.07;;;8.10;;
3261;SDS011;1643;47.746;9.000;2023-05-14T14:43:14;6.07;;;5.47;;
3261;SDS011;1643;47.746;9.000;2023-05-14T14:45:40;5.70;;;5.10;;
3261;SDS011;1643;47.746;9.000;2023-05-14T14:50:52;3.60;;;3.30;;
3261;SDS011;1643;47.746;9.000;2023-05-14T14:53:19;3.20;;;2.90;;
3261;SDS011;1643;47.746;9.000;2023-05-14T14:55:46;2.87;;;2.67;;
3261;SDS011;1643;47.746;9.000;2023-05-14T14:58:13;4.03;;;3.70;;
3261;SDS011;1643;47.746;9.000;2023-05-14T15:00:38;3.20;;;2.90;;
3261;SDS011;1643;47.746;9.000;2023-05-14T15:03:04;3.20;;;3.00;;
3261;SDS011;1643;47.746;9.000;2023-05-14T15:05:32;3.23;;;2.93;;
3261;SDS011;1643;47.746;9.000;2023-05-14T15:07:58;5.10;;;3.97;;
3261;SDS011;1643;47.746;9.000;2023-05-14T15:10:23;3.90;;;3.43;;
3261;SDS011;1643;47.746;9.000;2023-05-14T15:12:52;3.13;;;2.80;;
3261;SDS011;1643;47.746;9.000;2023-05-14T15:15:18;9.53;;;3.27;;
3261;SDS011;1643;47.746;9.000;2023-05-14T15:17:44;3.17;;;2.97;;
3261;SDS011;1643;47.746;9.000;2023-05-14T15:20:10;3.20;;;2.90;;
3261;SDS011;1643;47.746;9.000;2023-05-14T15:22:36;4.00;;;3.60;;
3261;SDS011;1643;47.746;9.000;2023-05-14T15:25:02;3.97;;;3.67;;
3261;SDS011;1643;47.746;9.000;2023-05-14T15:27:28;3.43;;;3.13;;
3261;SDS011;1643;47.746;9.000;2023-05-14T15:29:54;3.37;;;3.07;;